Great Reward — VRFZ6 — position and weather

sailwx.info

Track history (hours):
 
Tides and Currents Weather Stations Pressure Air Temp Water Temp Dewpoint Dewpoint Depression Visibility Wind Speed Wind Dir Waves Ship Positions

Great Reward

Last reported at 2017-Oct-22 14:21 UTC. Time now 2017-Nov-20 09:57 UTC.
Position N 01°14' E 103°59'.
Warning: this ship's position is 28 days out of date.

Length 178 m; draft 8.8 m.

Type: Cargo ship. MMSI: 338097928.

Date/timePositionNaut miles runAvg speedWind from/ knotsBaromVisibWave heightAir tempDewpointWater temp
2017-Oct-22 14:21N 01°14' E 103°59'3 9.6
2017-Oct-22 14:00N 01°14' E 103°55'3 5.2
2017-Oct-22 13:30N 01°16' E 103°53'0 0.3
2017-Oct-22 12:58N 01°16' E 103°53'0 0.1
2017-Oct-22 12:25N 01°16' E 103°53'0 0.0
2017-Oct-22 11:46N 01°16' E 103°53'0 0.1
2017-Oct-22 11:01N 01°16' E 103°54'0 0.0
2017-Oct-22 10:43N 01°16' E 103°54'0 0.0
2017-Oct-22 10:22N 01°16' E 103°54'0 0.0
2017-Oct-22 09:58N 01°16' E 103°54'0 0.0
2017-Oct-22 09:25N 01°16' E 103°54'0 0.0
2017-Oct-22 08:49N 01°16' E 103°54'0 0.1
2017-Oct-22 08:28N 01°16' E 103°54'0 0.0
2017-Oct-22 07:52N 01°16' E 103°54'0 0.0
2017-Oct-22 07:22N 01°16' E 103°54'0 0.0
2017-Oct-22 06:43N 01°16' E 103°54'0 0.0
2017-Oct-22 06:25N 01°16' E 103°54'0 0.1
2017-Oct-22 06:00N 01°16' E 103°54'2 4.7
2017-Oct-22 05:30N 01°16' E 103°56'2 4.2
2017-Oct-22 05:01N 01°14' E 103°55'3 6.4
2017-Oct-22 04:31N 01°15' E 103°58'4 8.0
2017-Oct-22 03:58N 01°16' E 104°02'4 8.5
2017-Oct-22 03:30N 01°17' E 104°06'6 6.9
2017-Oct-22 02:40N 01°18' E 104°11'  
2017-Oct-12 16:27N 01°15' E 104°05'1 2.1
2017-Oct-12 15:59N 01°15' E 104°04'1 2.1
2017-Oct-12 15:29N 01°14' E 104°03'1 2.0
2017-Oct-12 14:58N 01°14' E 104°02'1 2.0
2017-Oct-12 14:30N 01°14' E 104°01'  
Track history (hours):
 
Tides and Currents Weather Stations Pressure Air Temp Water Temp Dewpoint Dewpoint Depression Visibility Wind Speed Wind Dir Waves Ship Positions

Great Reward

Last reported at 2017-Oct-22 14:21 UTC. Time now 2017-Nov-20 09:57 UTC.
Position N 01°14' E 103°59'.
Warning: this ship's position is 28 days out of date.

Length 178 m; draft 8.8 m.

Type: Cargo ship. MMSI: 338097928.

Date/timePositionNaut miles runAvg speedWind from/ knotsBaromVisibWave heightAir tempDewpointWater temp
2017-Oct-22 14:21N 01°14' E 103°59'3 9.6
2017-Oct-22 14:00N 01°14' E 103°55'3 5.2
2017-Oct-22 13:30N 01°16' E 103°53'0 0.3
2017-Oct-22 12:58N 01°16' E 103°53'0 0.1
2017-Oct-22 12:25N 01°16' E 103°53'0 0.0
2017-Oct-22 11:46N 01°16' E 103°53'0 0.1
2017-Oct-22 11:01N 01°16' E 103°54'0 0.0
2017-Oct-22 10:43N 01°16' E 103°54'0 0.0
2017-Oct-22 10:22N 01°16' E 103°54'0 0.0
2017-Oct-22 09:58N 01°16' E 103°54'0 0.0
2017-Oct-22 09:25N 01°16' E 103°54'0 0.0
2017-Oct-22 08:49N 01°16' E 103°54'0 0.1
2017-Oct-22 08:28N 01°16' E 103°54'0 0.0
2017-Oct-22 07:52N 01°16' E 103°54'0 0.0
2017-Oct-22 07:22N 01°16' E 103°54'0 0.0
2017-Oct-22 06:43N 01°16' E 103°54'0 0.0
2017-Oct-22 06:25N 01°16' E 103°54'0 0.1
2017-Oct-22 06:00N 01°16' E 103°54'2 4.7
2017-Oct-22 05:30N 01°16' E 103°56'2 4.2
2017-Oct-22 05:01N 01°14' E 103°55'3 6.4
2017-Oct-22 04:31N 01°15' E 103°58'4 8.0
2017-Oct-22 03:58N 01°16' E 104°02'4 8.5
2017-Oct-22 03:30N 01°17' E 104°06'6 6.9
2017-Oct-22 02:40N 01°18' E 104°11'  
2017-Oct-12 16:27N 01°15' E 104°05'1 2.1
2017-Oct-12 15:59N 01°15' E 104°04'1 2.1
2017-Oct-12 15:29N 01°14' E 104°03'1 2.0
2017-Oct-12 14:58N 01°14' E 104°02'1 2.0
2017-Oct-12 14:30N 01°14' E 104°01'  

Dump ship's entire track history